Terminal Aerodrome Forecast
Issued by NWS Quad Cities IA IL

Home | Current Version | Previous Version | Text Only | Print | Product List | Glossary On
Versions: 1 2 3 4 5 6 7 8 9 10 11 12 13 14 15 16 17 18 19 20 21 22 23 24
000
FTUS43 KDVN 032348
TAFMLI
TAF
KMLI 032348Z 0400/0424 20010KT P6SM FEW050 SCT250
     FM040530 21006KT 6SM -RA BR VCTS SCT050 BKN070CB
      TEMPO 0406/0409 3SM TSRA BR OVC020CB
     FM041000 VRB05KT P6SM VCSH SCT040 BKN090
     FM041500 04006KT P6SM SCT050 BKN110=

USA.gov is the U.S. government's official web portal to all federal, state and local government web resources and services.